»·PEaware :: N796TM KLAS-KPSP

N796TM :: KLAS-KPSP

FLIGHT INFORMATION

Flight Status: Arrived
Operator: Privately registered:
United States
More flights under this callsign
Pilot: Thomas J. (32264)
Aircraft: SOCATA TBM-900
(TBM9)
More flights by this aircraft type
Origin: KLAS McCarran Intl
United States
Destination: KPSP Palm Springs Intl
United States
More flights between these airports :: More routes between these airports
Route: V538 GFS V514 TRM
File this flight plan on PilotEdge
Remarks:
Altitude:
(Current/Filed)
11,000ft
Speed:
(Current/Filed)
180kts
Departed: 29-Dec-20 02:29 PM
Arrived: 29-Dec-20 03:22 PM
Distance/Time
Traveled:
151nm/0:52
Distance/Time
To Go:
Arrived

Flight Plot

Page will automatically refresh every two minutes.

Flight plan parsing failed; only flown route is shown


Map Options




Map Legend


Flown Route
Filed Route
Departure Airport
Arrival Airport
Navaid (VOR, NDB)
Fix

Horizontal Profiles

Position Reports

Time Latitude Longitude Heading Altitude Ground
Speed
29-Dec-20 14:09 36.084045 -115.169884 179 2162ft 0kts
29-Dec-20 14:10 36.084045 -115.169884 179 2162ft 0kts
29-Dec-20 14:11 36.084045 -115.169884 179 2162ft 0kts
29-Dec-20 14:12 36.084045 -115.169884 179 2162ft 0kts
29-Dec-20 14:13 36.084045 -115.169884 179 2162ft 0kts
29-Dec-20 14:14 36.084045 -115.169884 179 2162ft 0kts
29-Dec-20 14:15 36.084045 -115.169884 179 2162ft 0kts
29-Dec-20 14:16 36.084045 -115.169884 179 2162ft 0kts
29-Dec-20 14:17 36.084045 -115.169884 179 2162ft 0kts
29-Dec-20 14:18 36.084045 -115.169884 179 2162ft 0kts
29-Dec-20 14:19 36.084045 -115.169884 179 2162ft 0kts
29-Dec-20 14:20 36.084045 -115.169884 179 2162ft 0kts
29-Dec-20 14:21 36.084045 -115.169884 179 2162ft 0kts
29-Dec-20 14:22 36.083062 -115.169604 176 2162ft 5kts
29-Dec-20 14:23 36.081555 -115.169645 152 2165ft 5kts
29-Dec-20 14:24 36.080635 -115.169726 201 2167ft 5kts
29-Dec-20 14:25 36.079563 -115.170398 200 2171ft 3kts
29-Dec-20 14:26 36.078093 -115.170039 97 2176ft 0kts
29-Dec-20 14:27 36.079193 -115.168207 25 2166ft 28kts
29-Dec-20 14:28 36.099470 -115.153343 22 2940ft 122kts
29-Dec-20 14:29 36.111061 -115.187556 251 3793ft 191kts
29-Dec-20 14:30 36.080654 -115.238800 184 5403ft 201kts
29-Dec-20 14:31 36.023655 -115.211587 151 7142ft 190kts
29-Dec-20 14:32 35.965870 -115.183875 151 8836ft 177kts
29-Dec-20 14:33 35.904419 -115.170491 175 10618ft 190kts
29-Dec-20 14:34 35.844814 -115.168876 172 11020ft 241kts
29-Dec-20 14:35 35.776039 -115.165315 172 10997ft 243kts
29-Dec-20 14:36 35.706647 -115.166389 176 10997ft 244kts
29-Dec-20 14:37 35.637457 -115.167611 176 10997ft 242kts
29-Dec-20 14:38 35.570668 -115.168786 175 10997ft 236kts
29-Dec-20 14:39 35.504445 -115.169948 175 10998ft 234kts
29-Dec-20 14:40 35.438639 -115.171095 175 10997ft 234kts
29-Dec-20 14:41 35.372073 -115.172257 175 10997ft 235kts
29-Dec-20 14:42 35.305721 -115.173404 175 11031ft 235kts
29-Dec-20 14:43 35.243430 -115.175472 172 11509ft 223kts
29-Dec-20 14:44 35.175699 -115.175695 176 11003ft 245kts
29-Dec-20 14:45 35.108540 -115.186257 198 11008ft 246kts
29-Dec-20 14:46 35.042796 -115.215554 197 11004ft 248kts
29-Dec-20 14:47 34.977567 -115.244318 198 11004ft 246kts
29-Dec-20 14:48 34.912848 -115.272864 199 11003ft 243kts
29-Dec-20 14:49 34.849446 -115.300803 199 10997ft 238kts
29-Dec-20 14:50 34.787224 -115.328155 200 10998ft 236kts
29-Dec-20 14:51 34.724644 -115.355609 200 10999ft 235kts
29-Dec-20 14:52 34.661649 -115.383197 200 11023ft 235kts
29-Dec-20 14:53 34.598760 -115.410697 200 11060ft 234kts
29-Dec-20 14:54 34.537296 -115.437534 200 11098ft 234kts
29-Dec-20 14:55 34.475878 -115.464309 200 11101ft 235kts
29-Dec-20 14:56 34.414666 -115.490954 200 11102ft 237kts
29-Dec-20 14:57 34.353429 -115.517563 200 11106ft 243kts
29-Dec-20 14:58 34.301307 -115.557060 225 11106ft 250kts
29-Dec-20 14:59 34.249534 -115.615616 225 11103ft 252kts
29-Dec-20 15:00 34.202442 -115.668623 224 11101ft 253kts
29-Dec-20 15:01 34.158188 -115.718346 224 11102ft 253kts
29-Dec-20 15:02 34.113517 -115.768378 222 11101ft 253kts
29-Dec-20 15:03 34.060959 -115.811509 215 11102ft 254kts
29-Dec-20 15:04 33.993877 -115.865819 215 11103ft 255kts
29-Dec-20 15:05 33.934881 -115.913510 215 11103ft 255kts
29-Dec-20 15:06 33.877387 -115.959906 215 11041ft 256kts
29-Dec-20 15:07 33.819752 -116.006318 215 10334ft 230kts
29-Dec-20 15:08 33.768635 -116.047447 215 9403ft 214kts
29-Dec-20 15:09 33.719133 -116.087205 215 8150ft 215kts
29-Dec-20 15:10 33.669583 -116.126950 216 6564ft 213kts
29-Dec-20 15:11 33.632007 -116.172685 283 5563ft 166kts
29-Dec-20 15:12 33.642593 -116.223079 291 5480ft 147kts
29-Dec-20 15:13 33.652982 -116.268324 292 5483ft 136kts
29-Dec-20 15:14 33.664576 -116.318650 290 4647ft 171kts
29-Dec-20 15:15 33.682052 -116.370957 323 3980ft 154kts
29-Dec-20 15:16 33.713616 -116.400607 325 3461ft 141kts
29-Dec-20 15:18 33.745365 -116.429936 325 2453ft 151kts
29-Dec-20 15:19 33.776120 -116.458804 327 1681ft 118kts
29-Dec-20 15:20 33.801621 -116.483147 327 1016ft 108kts
29-Dec-20 15:21 33.823236 -116.501935 324 410ft 59kts
29-Dec-20 15:22 33.828029 -116.507145 205 428ft 14kts
29-Dec-20 15:23 33.826326 -116.506830 175 423ft 8kts

Navigation Log

Ident Type
Flight plan parsing failed, navigation log unavailable